sensor_id;sensor_type;location;lat;lon;timestamp;P1;durP1;ratioP1;P2;durP2;ratioP2
45039;SDS011;30778;53.574;7.770;2022-12-18T00:01:52;74.25;;;22.83;;
45039;SDS011;30778;53.574;7.770;2022-12-18T00:04:20;77.57;;;22.48;;
45039;SDS011;30778;53.574;7.770;2022-12-18T00:06:48;76.47;;;24.02;;
45039;SDS011;30778;53.574;7.770;2022-12-18T00:09:13;75.72;;;24.45;;
45039;SDS011;30778;53.574;7.770;2022-12-18T00:11:39;72.65;;;22.35;;
45039;SDS011;30778;53.574;7.770;2022-12-18T00:14:04;87.07;;;24.45;;
45039;SDS011;30778;53.574;7.770;2022-12-18T00:16:29;73.60;;;21.98;;
45039;SDS011;30778;53.574;7.770;2022-12-18T00:18:58;82.38;;;23.73;;
45039;SDS011;30778;53.574;7.770;2022-12-18T00:21:24;84.82;;;22.85;;
45039;SDS011;30778;53.574;7.770;2022-12-18T00:23:50;73.20;;;23.00;;
45039;SDS011;30778;53.574;7.770;2022-12-18T00:26:17;72.68;;;22.90;;
45039;SDS011;30778;53.574;7.770;2022-12-18T00:28:43;90.88;;;22.70;;
45039;SDS011;30778;53.574;7.770;2022-12-18T00:31:11;72.05;;;21.17;;
45039;SDS011;30778;53.574;7.770;2022-12-18T00:33:38;67.72;;;22.20;;
45039;SDS011;30778;53.574;7.770;2022-12-18T00:36:04;78.70;;;23.02;;
45039;SDS011;30778;53.574;7.770;2022-12-18T00:38:32;73.47;;;21.80;;
45039;SDS011;30778;53.574;7.770;2022-12-18T00:40:58;92.25;;;22.15;;
45039;SDS011;30778;53.574;7.770;2022-12-18T00:43:24;83.95;;;22.15;;
45039;SDS011;30778;53.574;7.770;2022-12-18T00:45:51;77.22;;;24.52;;
45039;SDS011;30778;53.574;7.770;2022-12-18T00:48:17;83.53;;;23.40;;
45039;SDS011;30778;53.574;7.770;2022-12-18T00:50:43;87.45;;;25.40;;
45039;SDS011;30778;53.574;7.770;2022-12-18T00:53:08;84.25;;;23.77;;
45039;SDS011;30778;53.574;7.770;2022-12-18T00:55:34;80.20;;;22.88;;
45039;SDS011;30778;53.574;7.770;2022-12-18T00:57:59;71.85;;;21.83;;
45039;SDS011;30778;53.574;7.770;2022-12-18T01:00:25;73.78;;;21.30;;
45039;SDS011;30778;53.574;7.770;2022-12-18T01:02:50;83.95;;;24.25;;
45039;SDS011;30778;53.574;7.770;2022-12-18T01:05:18;83.10;;;24.25;;
45039;SDS011;30778;53.574;7.770;2022-12-18T01:07:44;71.68;;;21.42;;
45039;SDS011;30778;53.574;7.770;2022-12-18T01:10:09;75.82;;;22.88;;
45039;SDS011;30778;53.574;7.770;2022-12-18T01:12:37;80.70;;;21.80;;
45039;SDS011;30778;53.574;7.770;2022-12-18T01:15:02;68.70;;;23.45;;
45039;SDS011;30778;53.574;7.770;2022-12-18T01:17:28;72.18;;;21.08;;
45039;SDS011;30778;53.574;7.770;2022-12-18T01:19:54;75.18;;;22.85;;
45039;SDS011;30778;53.574;7.770;2022-12-18T01:22:19;70.30;;;22.27;;
45039;SDS011;30778;53.574;7.770;2022-12-18T01:24:44;64.30;;;20.92;;
45039;SDS011;30778;53.574;7.770;2022-12-18T01:27:10;64.05;;;20.50;;
45039;SDS011;30778;53.574;7.770;2022-12-18T01:29:36;71.65;;;22.10;;
45039;SDS011;30778;53.574;7.770;2022-12-18T01:32:01;75.97;;;22.73;;
45039;SDS011;30778;53.574;7.770;2022-12-18T01:34:28;77.18;;;22.70;;
45039;SDS011;30778;53.574;7.770;2022-12-18T01:36:54;72.68;;;23.13;;
45039;SDS011;30778;53.574;7.770;2022-12-18T01:39:19;67.68;;;21.48;;
45039;SDS011;30778;53.574;7.770;2022-12-18T01:41:45;74.25;;;24.60;;
45039;SDS011;30778;53.574;7.770;2022-12-18T01:47:30;64.40;;;22.20;;
45039;SDS011;30778;53.574;7.770;2022-12-18T01:50:01;64.20;;;22.38;;
45039;SDS011;30778;53.574;7.770;2022-12-18T01:52:30;66.22;;;23.73;;
45039;SDS011;30778;53.574;7.770;2022-12-18T01:54:57;76.80;;;21.55;;
45039;SDS011;30778;53.574;7.770;2022-12-18T01:57:24;68.53;;;20.05;;
45039;SDS011;30778;53.574;7.770;2022-12-18T01:59:52;59.17;;;20.98;;
45039;SDS011;30778;53.574;7.770;2022-12-18T02:02:21;58.88;;;22.60;;
45039;SDS011;30778;53.574;7.770;2022-12-18T02:04:47;74.97;;;23.98;;
45039;SDS011;30778;53.574;7.770;2022-12-18T02:12:39;75.70;;;19.60;;
45039;SDS011;30778;53.574;7.770;2022-12-18T02:18:04;70.07;;;20.48;;
45039;SDS011;30778;53.574;7.770;2022-12-18T02:20:35;61.85;;;19.60;;
45039;SDS011;30778;53.574;7.770;2022-12-18T02:28:43;63.30;;;19.50;;
45039;SDS011;30778;53.574;7.770;2022-12-18T02:31:14;66.57;;;21.13;;
45039;SDS011;30778;53.574;7.770;2022-12-18T02:33:46;68.60;;;22.35;;
45039;SDS011;30778;53.574;7.770;2022-12-18T02:36:13;70.20;;;21.08;;
45039;SDS011;30778;53.574;7.770;2022-12-18T02:38:42;59.03;;;21.80;;
45039;SDS011;30778;53.574;7.770;2022-12-18T02:41:13;71.22;;;20.42;;
45039;SDS011;30778;53.574;7.770;2022-12-18T02:43:45;60.55;;;20.08;;
45039;SDS011;30778;53.574;7.770;2022-12-18T02:46:27;70.93;;;21.63;;
45039;SDS011;30778;53.574;7.770;2022-12-18T02:49:09;68.97;;;21.33;;
45039;SDS011;30778;53.574;7.770;2022-12-18T02:57:42;56.13;;;18.95;;
45039;SDS011;30778;53.574;7.770;2022-12-18T03:00:14;66.70;;;21.48;;
45039;SDS011;30778;53.574;7.770;2022-12-18T03:03:06;68.80;;;19.50;;
45039;SDS011;30778;53.574;7.770;2022-12-18T03:05:36;62.67;;;20.88;;
45039;SDS011;30778;53.574;7.770;2022-12-18T03:08:18;63.85;;;21.35;;
45039;SDS011;30778;53.574;7.770;2022-12-18T03:10:53;65.53;;;20.05;;
45039;SDS011;30778;53.574;7.770;2022-12-18T03:13:28;73.50;;;21.75;;
45039;SDS011;30778;53.574;7.770;2022-12-18T03:16:20;49.33;;;18.38;;
45039;SDS011;30778;53.574;7.770;2022-12-18T03:18:51;62.65;;;20.38;;
45039;SDS011;30778;53.574;7.770;2022-12-18T03:21:21;60.20;;;19.60;;
45039;SDS011;30778;53.574;7.770;2022-12-18T03:23:52;63.45;;;17.80;;
45039;SDS011;30778;53.574;7.770;2022-12-18T03:26:24;60.15;;;21.73;;
45039;SDS011;30778;53.574;7.770;2022-12-18T03:28:57;65.80;;;19.02;;
45039;SDS011;30778;53.574;7.770;2022-12-18T03:31:28;64.93;;;19.05;;
45039;SDS011;30778;53.574;7.770;2022-12-18T03:34:03;59.13;;;21.55;;
45039;SDS011;30778;53.574;7.770;2022-12-18T03:36:39;59.38;;;18.35;;
45039;SDS011;30778;53.574;7.770;2022-12-18T03:39:06;55.75;;;19.80;;
45039;SDS011;30778;53.574;7.770;2022-12-18T03:41:45;73.45;;;20.67;;
45039;SDS011;30778;53.574;7.770;2022-12-18T03:50:07;54.72;;;18.70;;
45039;SDS011;30778;53.574;7.770;2022-12-18T03:56:06;52.03;;;17.45;;
45039;SDS011;30778;53.574;7.770;2022-12-18T03:58:37;51.55;;;17.33;;
45039;SDS011;30778;53.574;7.770;2022-12-18T04:01:15;57.22;;;16.83;;
45039;SDS011;30778;53.574;7.770;2022-12-18T04:03:43;49.25;;;17.77;;
45039;SDS011;30778;53.574;7.770;2022-12-18T04:06:11;60.88;;;18.92;;
45039;SDS011;30778;53.574;7.770;2022-12-18T04:08:40;60.47;;;22.40;;
45039;SDS011;30778;53.574;7.770;2022-12-18T04:11:08;43.25;;;16.45;;
45039;SDS011;30778;53.574;7.770;2022-12-18T04:13:35;65.28;;;20.85;;
45039;SDS011;30778;53.574;7.770;2022-12-18T04:16:05;58.28;;;21.15;;
45039;SDS011;30778;53.574;7.770;2022-12-18T04:18:31;58.78;;;18.45;;
45039;SDS011;30778;53.574;7.770;2022-12-18T04:20:58;57.83;;;20.52;;
45039;SDS011;30778;53.574;7.770;2022-12-18T04:23:24;52.53;;;16.65;;
45039;SDS011;30778;53.574;7.770;2022-12-18T04:25:54;67.82;;;20.23;;
45039;SDS011;30778;53.574;7.770;2022-12-18T04:28:33;55.10;;;17.83;;
45039;SDS011;30778;53.574;7.770;2022-12-18T04:30:59;47.92;;;19.38;;
45039;SDS011;30778;53.574;7.770;2022-12-18T04:33:28;58.30;;;17.05;;
45039;SDS011;30778;53.574;7.770;2022-12-18T04:35:56;51.65;;;18.33;;
45039;SDS011;30778;53.574;7.770;2022-12-18T04:38:23;58.10;;;18.15;;
45039;SDS011;30778;53.574;7.770;2022-12-18T04:40:56;59.20;;;20.67;;
45039;SDS011;30778;53.574;7.770;2022-12-18T04:43:26;67.07;;;19.13;;
45039;SDS011;30778;53.574;7.770;2022-12-18T04:45:51;61.88;;;18.10;;
45039;SDS011;30778;53.574;7.770;2022-12-18T04:48:17;52.75;;;19.42;;
45039;SDS011;30778;53.574;7.770;2022-12-18T04:50:42;53.13;;;18.52;;
45039;SDS011;30778;53.574;7.770;2022-12-18T04:53:07;50.17;;;15.52;;
45039;SDS011;30778;53.574;7.770;2022-12-18T04:55:33;52.35;;;17.40;;
45039;SDS011;30778;53.574;7.770;2022-12-18T04:57:58;59.45;;;17.27;;
45039;SDS011;30778;53.574;7.770;2022-12-18T05:00:25;66.90;;;19.63;;
45039;SDS011;30778;53.574;7.770;2022-12-18T05:02:51;55.88;;;17.45;;
45039;SDS011;30778;53.574;7.770;2022-12-18T05:05:16;64.18;;;18.38;;
45039;SDS011;30778;53.574;7.770;2022-12-18T05:07:45;58.22;;;17.30;;
45039;SDS011;30778;53.574;7.770;2022-12-18T05:10:10;48.38;;;17.35;;
45039;SDS011;30778;53.574;7.770;2022-12-18T05:12:36;54.13;;;18.48;;
45039;SDS011;30778;53.574;7.770;2022-12-18T05:15:21;51.80;;;17.20;;
45039;SDS011;30778;53.574;7.770;2022-12-18T05:17:46;52.92;;;16.67;;
45039;SDS011;30778;53.574;7.770;2022-12-18T05:20:12;52.58;;;17.80;;
45039;SDS011;30778;53.574;7.770;2022-12-18T05:22:38;56.38;;;16.60;;
45039;SDS011;30778;53.574;7.770;2022-12-18T05:25:03;52.70;;;16.00;;
45039;SDS011;30778;53.574;7.770;2022-12-18T05:27:29;43.22;;;13.90;;
45039;SDS011;30778;53.574;7.770;2022-12-18T05:29:54;58.17;;;17.58;;
45039;SDS011;30778;53.574;7.770;2022-12-18T05:32:20;51.95;;;18.17;;
45039;SDS011;30778;53.574;7.770;2022-12-18T05:34:45;49.35;;;16.67;;
45039;SDS011;30778;53.574;7.770;2022-12-18T05:37:11;42.90;;;16.17;;
45039;SDS011;30778;53.574;7.770;2022-12-18T05:39:36;57.40;;;18.58;;
45039;SDS011;30778;53.574;7.770;2022-12-18T05:42:02;54.42;;;16.83;;
45039;SDS011;30778;53.574;7.770;2022-12-18T05:44:27;47.95;;;15.98;;
45039;SDS011;30778;53.574;7.770;2022-12-18T05:46:52;43.10;;;14.98;;
45039;SDS011;30778;53.574;7.770;2022-12-18T05:49:18;55.05;;;14.95;;
45039;SDS011;30778;53.574;7.770;2022-12-18T05:51:43;42.33;;;15.52;;
45039;SDS011;30778;53.574;7.770;2022-12-18T05:54:10;45.22;;;15.80;;
45039;SDS011;30778;53.574;7.770;2022-12-18T05:56:36;45.15;;;15.73;;
45039;SDS011;30778;53.574;7.770;2022-12-18T05:59:01;42.00;;;14.10;;
45039;SDS011;30778;53.574;7.770;2022-12-18T06:01:27;38.25;;;14.70;;
45039;SDS011;30778;53.574;7.770;2022-12-18T06:03:52;40.35;;;13.63;;
45039;SDS011;30778;53.574;7.770;2022-12-18T06:06:27;40.13;;;15.02;;
45039;SDS011;30778;53.574;7.770;2022-12-18T06:08:54;41.08;;;15.45;;
45039;SDS011;30778;53.574;7.770;2022-12-18T06:11:20;39.17;;;13.93;;
45039;SDS011;30778;53.574;7.770;2022-12-18T06:13:55;45.22;;;12.77;;
45039;SDS011;30778;53.574;7.770;2022-12-18T06:16:21;33.78;;;11.98;;
45039;SDS011;30778;53.574;7.770;2022-12-18T06:18:47;30.13;;;12.52;;
45039;SDS011;30778;53.574;7.770;2022-12-18T06:21:12;30.27;;;11.90;;
45039;SDS011;30778;53.574;7.770;2022-12-18T06:23:38;39.53;;;12.95;;
45039;SDS011;30778;53.574;7.770;2022-12-18T06:26:08;43.88;;;13.18;;
45039;SDS011;30778;53.574;7.770;2022-12-18T06:28:34;31.85;;;12.43;;
45039;SDS011;30778;53.574;7.770;2022-12-18T06:31:00;36.60;;;12.48;;
45039;SDS011;30778;53.574;7.770;2022-12-18T06:33:28;31.50;;;10.68;;
45039;SDS011;30778;53.574;7.770;2022-12-18T06:35:54;35.20;;;12.35;;
45039;SDS011;30778;53.574;7.770;2022-12-18T06:38:24;32.92;;;11.88;;
45039;SDS011;30778;53.574;7.770;2022-12-18T06:40:49;35.22;;;12.27;;
45039;SDS011;30778;53.574;7.770;2022-12-18T06:43:15;31.20;;;12.52;;
45039;SDS011;30778;53.574;7.770;2022-12-18T06:45:40;29.13;;;12.13;;
45039;SDS011;30778;53.574;7.770;2022-12-18T06:48:06;33.38;;;10.50;;
45039;SDS011;30778;53.574;7.770;2022-12-18T06:50:31;23.80;;;10.35;;
45039;SDS011;30778;53.574;7.770;2022-12-18T06:52:57;27.60;;;10.52;;
45039;SDS011;30778;53.574;7.770;2022-12-18T06:55:25;27.90;;;10.52;;
45039;SDS011;30778;53.574;7.770;2022-12-18T06:57:50;22.77;;;9.98;;
45039;SDS011;30778;53.574;7.770;2022-12-18T07:00:16;25.35;;;11.02;;
45039;SDS011;30778;53.574;7.770;2022-12-18T07:02:42;29.63;;;10.50;;
45039;SDS011;30778;53.574;7.770;2022-12-18T07:05:07;24.20;;;10.15;;
45039;SDS011;30778;53.574;7.770;2022-12-18T07:07:34;29.63;;;11.52;;
45039;SDS011;30778;53.574;7.770;2022-12-18T07:09:59;22.65;;;8.70;;
45039;SDS011;30778;53.574;7.770;2022-12-18T07:12:26;24.35;;;10.35;;
45039;SDS011;30778;53.574;7.770;2022-12-18T07:14:52;27.38;;;10.48;;
45039;SDS011;30778;53.574;7.770;2022-12-18T07:17:17;22.92;;;9.68;;
45039;SDS011;30778;53.574;7.770;2022-12-18T07:19:43;23.27;;;10.20;;
45039;SDS011;30778;53.574;7.770;2022-12-18T07:22:08;30.33;;;12.77;;
45039;SDS011;30778;53.574;7.770;2022-12-18T07:24:33;22.60;;;9.57;;
45039;SDS011;30778;53.574;7.770;2022-12-18T07:26:59;22.27;;;9.80;;
45039;SDS011;30778;53.574;7.770;2022-12-18T07:29:25;26.17;;;11.13;;
45039;SDS011;30778;53.574;7.770;2022-12-18T07:31:50;28.95;;;10.18;;
45039;SDS011;30778;53.574;7.770;2022-12-18T07:34:16;24.15;;;9.95;;
45039;SDS011;30778;53.574;7.770;2022-12-18T07:36:41;26.45;;;11.75;;
45039;SDS011;30778;53.574;7.770;2022-12-18T07:39:07;23.55;;;9.45;;
45039;SDS011;30778;53.574;7.770;2022-12-18T07:41:32;34.38;;;11.40;;
45039;SDS011;30778;53.574;7.770;2022-12-18T07:44:08;27.30;;;10.57;;
45039;SDS011;30778;53.574;7.770;2022-12-18T07:46:35;27.58;;;9.85;;
45039;SDS011;30778;53.574;7.770;2022-12-18T07:49:02;23.60;;;9.95;;
45039;SDS011;30778;53.574;7.770;2022-12-18T07:51:27;18.92;;;8.15;;
45039;SDS011;30778;53.574;7.770;2022-12-18T07:53:53;23.20;;;9.52;;
45039;SDS011;30778;53.574;7.770;2022-12-18T07:56:18;16.27;;;7.85;;
45039;SDS011;30778;53.574;7.770;2022-12-18T07:58:45;19.85;;;8.75;;
45039;SDS011;30778;53.574;7.770;2022-12-18T08:01:12;27.95;;;10.13;;
45039;SDS011;30778;53.574;7.770;2022-12-18T08:03:39;19.48;;;8.65;;
45039;SDS011;30778;53.574;7.770;2022-12-18T08:06:06;24.88;;;9.70;;
45039;SDS011;30778;53.574;7.770;2022-12-18T08:08:33;25.45;;;9.93;;
45039;SDS011;30778;53.574;7.770;2022-12-18T08:11:00;18.23;;;8.05;;
45039;SDS011;30778;53.574;7.770;2022-12-18T08:13:26;21.73;;;9.65;;
45039;SDS011;30778;53.574;7.770;2022-12-18T08:15:56;17.38;;;8.50;;
45039;SDS011;30778;53.574;7.770;2022-12-18T08:18:22;20.17;;;7.72;;
45039;SDS011;30778;53.574;7.770;2022-12-18T08:20:47;15.55;;;7.28;;
45039;SDS011;30778;53.574;7.770;2022-12-18T08:23:12;14.70;;;7.25;;
45039;SDS011;30778;53.574;7.770;2022-12-18T08:25:38;18.08;;;8.32;;
45039;SDS011;30778;53.574;7.770;2022-12-18T08:28:03;25.70;;;8.93;;
45039;SDS011;30778;53.574;7.770;2022-12-18T08:30:29;19.95;;;8.07;;
45039;SDS011;30778;53.574;7.770;2022-12-18T08:32:54;17.10;;;7.25;;
45039;SDS011;30778;53.574;7.770;2022-12-18T08:35:19;16.77;;;7.03;;
45039;SDS011;30778;53.574;7.770;2022-12-18T08:37:45;16.05;;;6.93;;
45039;SDS011;30778;53.574;7.770;2022-12-18T08:40:10;20.02;;;6.97;;
45039;SDS011;30778;53.574;7.770;2022-12-18T08:42:37;15.13;;;6.53;;
45039;SDS011;30778;53.574;7.770;2022-12-18T08:45:21;12.90;;;5.63;;
45039;SDS011;30778;53.574;7.770;2022-12-18T08:47:47;18.77;;;8.07;;
45039;SDS011;30778;53.574;7.770;2022-12-18T08:50:12;19.02;;;7.03;;
45039;SDS011;30778;53.574;7.770;2022-12-18T08:52:38;17.63;;;6.50;;
45039;SDS011;30778;53.574;7.770;2022-12-18T08:55:03;18.45;;;6.97;;
45039;SDS011;30778;53.574;7.770;2022-12-18T08:57:29;17.73;;;6.05;;
45039;SDS011;30778;53.574;7.770;2022-12-18T08:59:55;13.80;;;5.47;;
45039;SDS011;30778;53.574;7.770;2022-12-18T09:02:20;12.65;;;5.15;;
45039;SDS011;30778;53.574;7.770;2022-12-18T09:04:49;15.65;;;5.85;;
45039;SDS011;30778;53.574;7.770;2022-12-18T09:07:14;11.60;;;6.38;;
45039;SDS011;30778;53.574;7.770;2022-12-18T09:09:40;15.18;;;5.70;;
45039;SDS011;30778;53.574;7.770;2022-12-18T09:12:05;9.57;;;4.53;;
45039;SDS011;30778;53.574;7.770;2022-12-18T09:14:31;11.70;;;5.60;;
45039;SDS011;30778;53.574;7.770;2022-12-18T09:16:56;12.05;;;5.53;;
45039;SDS011;30778;53.574;7.770;2022-12-18T09:19:22;14.80;;;5.38;;
45039;SDS011;30778;53.574;7.770;2022-12-18T09:21:47;9.25;;;4.63;;
45039;SDS011;30778;53.574;7.770;2022-12-18T09:24:13;13.43;;;5.57;;
45039;SDS011;30778;53.574;7.770;2022-12-18T09:26:41;13.80;;;6.15;;
45039;SDS011;30778;53.574;7.770;2022-12-18T09:29:07;13.18;;;4.68;;
45039;SDS011;30778;53.574;7.770;2022-12-18T09:31:32;15.85;;;6.25;;
45039;SDS011;30778;53.574;7.770;2022-12-18T09:33:58;14.55;;;5.00;;
45039;SDS011;30778;53.574;7.770;2022-12-18T09:36:24;18.60;;;5.07;;
45039;SDS011;30778;53.574;7.770;2022-12-18T09:38:50;12.95;;;4.75;;
45039;SDS011;30778;53.574;7.770;2022-12-18T09:44:05;13.80;;;5.85;;
45039;SDS011;30778;53.574;7.770;2022-12-18T09:47:11;16.73;;;6.57;;
45039;SDS011;30778;53.574;7.770;2022-12-18T09:49:43;10.02;;;4.80;;
45039;SDS011;30778;53.574;7.770;2022-12-18T09:52:13;14.05;;;5.63;;
45039;SDS011;30778;53.574;7.770;2022-12-18T09:54:41;10.60;;;5.30;;
45039;SDS011;30778;53.574;7.770;2022-12-18T09:57:15;10.45;;;5.72;;
45039;SDS011;30778;53.574;7.770;2022-12-18T09:59:44;10.82;;;5.82;;
45039;SDS011;30778;53.574;7.770;2022-12-18T10:02:23;8.35;;;5.00;;
45039;SDS011;30778;53.574;7.770;2022-12-18T10:16:16;11.25;;;5.78;;
45039;SDS011;30778;53.574;7.770;2022-12-18T10:21:45;8.05;;;4.28;;
45039;SDS011;30778;53.574;7.770;2022-12-18T10:27:09;11.38;;;4.80;;
45039;SDS011;30778;53.574;7.770;2022-12-18T10:29:40;13.77;;;5.07;;
45039;SDS011;30778;53.574;7.770;2022-12-18T10:32:08;7.82;;;4.75;;
45039;SDS011;30778;53.574;7.770;2022-12-18T10:34:40;7.18;;;3.33;;
45039;SDS011;30778;53.574;7.770;2022-12-18T10:37:06;6.95;;;3.65;;
45039;SDS011;30778;53.574;7.770;2022-12-18T10:39:41;8.82;;;4.63;;
45039;SDS011;30778;53.574;7.770;2022-12-18T10:42:11;13.48;;;4.55;;
45039;SDS011;30778;53.574;7.770;2022-12-18T10:44:41;9.15;;;4.22;;
45039;SDS011;30778;53.574;7.770;2022-12-18T10:47:10;6.63;;;4.18;;
45039;SDS011;30778;53.574;7.770;2022-12-18T10:49:41;8.10;;;4.13;;
45039;SDS011;30778;53.574;7.770;2022-12-18T10:52:15;8.02;;;3.50;;
45039;SDS011;30778;53.574;7.770;2022-12-18T10:55:15;11.05;;;4.30;;
45039;SDS011;30778;53.574;7.770;2022-12-18T10:57:41;10.10;;;5.10;;
45039;SDS011;30778;53.574;7.770;2022-12-18T11:02:57;7.38;;;3.08;;
45039;SDS011;30778;53.574;7.770;2022-12-18T11:05:27;6.70;;;3.92;;
45039;SDS011;30778;53.574;7.770;2022-12-18T11:07:54;10.35;;;3.67;;
45039;SDS011;30778;53.574;7.770;2022-12-18T11:10:21;7.90;;;4.75;;
45039;SDS011;30778;53.574;7.770;2022-12-18T11:12:50;7.57;;;3.28;;
45039;SDS011;30778;53.574;7.770;2022-12-18T11:15:19;6.57;;;3.58;;
45039;SDS011;30778;53.574;7.770;2022-12-18T11:17:48;7.53;;;3.55;;
45039;SDS011;30778;53.574;7.770;2022-12-18T11:22:57;9.10;;;4.32;;
45039;SDS011;30778;53.574;7.770;2022-12-18T11:25:28;7.55;;;3.55;;
45039;SDS011;30778;53.574;7.770;2022-12-18T11:28:00;7.30;;;3.38;;
45039;SDS011;30778;53.574;7.770;2022-12-18T11:32:54;10.15;;;3.50;;
45039;SDS011;30778;53.574;7.770;2022-12-18T11:38:21;7.15;;;4.72;;
45039;SDS011;30778;53.574;7.770;2022-12-18T11:43:49;8.50;;;2.88;;
45039;SDS011;30778;53.574;7.770;2022-12-18T11:49:01;6.50;;;3.45;;
45039;SDS011;30778;53.574;7.770;2022-12-18T11:51:50;9.32;;;4.70;;
45039;SDS011;30778;53.574;7.770;2022-12-18T11:54:21;7.47;;;4.53;;
45039;SDS011;30778;53.574;7.770;2022-12-18T11:56:48;8.20;;;3.75;;
45039;SDS011;30778;53.574;7.770;2022-12-18T12:07:38;8.25;;;3.97;;
45039;SDS011;30778;53.574;7.770;2022-12-18T12:22:23;10.10;;;4.43;;
45039;SDS011;30778;53.574;7.770;2022-12-18T12:25:07;10.15;;;4.15;;
45039;SDS011;30778;53.574;7.770;2022-12-18T12:36:17;8.80;;;5.60;;
45039;SDS011;30778;53.574;7.770;2022-12-18T12:39:03;9.73;;;4.70;;
45039;SDS011;30778;53.574;7.770;2022-12-18T12:41:36;9.48;;;4.72;;
45039;SDS011;30778;53.574;7.770;2022-12-18T12:44:27;6.80;;;3.78;;
45039;SDS011;30778;53.574;7.770;2022-12-18T12:46:56;9.52;;;4.45;;
45039;SDS011;30778;53.574;7.770;2022-12-18T12:49:26;10.77;;;4.72;;
45039;SDS011;30778;53.574;7.770;2022-12-18T12:52:00;9.38;;;4.82;;
45039;SDS011;30778;53.574;7.770;2022-12-18T12:54:51;5.50;;;3.53;;
45039;SDS011;30778;53.574;7.770;2022-12-18T12:57:21;16.40;;;6.13;;
45039;SDS011;30778;53.574;7.770;2022-12-18T13:05:25;8.15;;;4.45;;
45039;SDS011;30778;53.574;7.770;2022-12-18T13:07:57;8.60;;;5.20;;
45039;SDS011;30778;53.574;7.770;2022-12-18T13:10:38;11.57;;;5.13;;
45039;SDS011;30778;53.574;7.770;2022-12-18T13:13:09;10.38;;;6.13;;
45039;SDS011;30778;53.574;7.770;2022-12-18T13:15:39;11.20;;;5.18;;
45039;SDS011;30778;53.574;7.770;2022-12-18T13:18:16;13.32;;;4.90;;
45039;SDS011;30778;53.574;7.770;2022-12-18T13:20:47;15.52;;;5.18;;
45039;SDS011;30778;53.574;7.770;2022-12-18T13:23:34;12.70;;;4.88;;
45039;SDS011;30778;53.574;7.770;2022-12-18T13:30:59;10.38;;;4.68;;
45039;SDS011;30778;53.574;7.770;2022-12-18T13:38:40;8.65;;;4.93;;
45039;SDS011;30778;53.574;7.770;2022-12-18T13:43:45;9.02;;;5.50;;
45039;SDS011;30778;53.574;7.770;2022-12-18T13:46:30;11.88;;;6.50;;
45039;SDS011;30778;53.574;7.770;2022-12-18T13:51:41;11.85;;;6.50;;
45039;SDS011;30778;53.574;7.770;2022-12-18T13:56:59;8.57;;;4.97;;
45039;SDS011;30778;53.574;7.770;2022-12-18T13:59:25;9.65;;;4.80;;
45039;SDS011;30778;53.574;7.770;2022-12-18T14:04:46;12.02;;;6.25;;
45039;SDS011;30778;53.574;7.770;2022-12-18T14:07:17;8.40;;;4.13;;
45039;SDS011;30778;53.574;7.770;2022-12-18T14:09:46;7.82;;;5.00;;
45039;SDS011;30778;53.574;7.770;2022-12-18T14:12:19;9.38;;;5.65;;
45039;SDS011;30778;53.574;7.770;2022-12-18T14:15:19;9.60;;;4.07;;
45039;SDS011;30778;53.574;7.770;2022-12-18T14:18:26;9.63;;;4.90;;
45039;SDS011;30778;53.574;7.770;2022-12-18T14:21:06;9.93;;;4.57;;
45039;SDS011;30778;53.574;7.770;2022-12-18T14:23:43;12.50;;;4.50;;
45039;SDS011;30778;53.574;7.770;2022-12-18T14:29:21;11.18;;;5.00;;
45039;SDS011;30778;53.574;7.770;2022-12-18T14:31:46;16.15;;;5.78;;
45039;SDS011;30778;53.574;7.770;2022-12-18T14:34:49;8.32;;;5.22;;
45039;SDS011;30778;53.574;7.770;2022-12-18T14:37:18;11.13;;;4.30;;
45039;SDS011;30778;53.574;7.770;2022-12-18T14:39:53;7.53;;;5.38;;
45039;SDS011;30778;53.574;7.770;2022-12-18T14:42:21;16.40;;;6.57;;
45039;SDS011;30778;53.574;7.770;2022-12-18T14:44:47;10.73;;;4.85;;
45039;SDS011;30778;53.574;7.770;2022-12-18T14:47:24;16.60;;;6.05;;
45039;SDS011;30778;53.574;7.770;2022-12-18T14:49:49;13.65;;;4.82;;
45039;SDS011;30778;53.574;7.770;2022-12-18T14:52:19;8.13;;;5.10;;
45039;SDS011;30778;53.574;7.770;2022-12-18T14:54:56;13.25;;;7.00;;
45039;SDS011;30778;53.574;7.770;2022-12-18T14:57:23;12.77;;;5.25;;
45039;SDS011;30778;53.574;7.770;2022-12-18T14:59:51;10.68;;;5.03;;
45039;SDS011;30778;53.574;7.770;2022-12-18T15:02:24;9.35;;;5.60;;
45039;SDS011;30778;53.574;7.770;2022-12-18T15:05:02;9.88;;;4.20;;
45039;SDS011;30778;53.574;7.770;2022-12-18T15:07:47;10.10;;;4.75;;
45039;SDS011;30778;53.574;7.770;2022-12-18T15:12:45;11.90;;;4.72;;
45039;SDS011;30778;53.574;7.770;2022-12-18T15:17:58;7.78;;;2.85;;
45039;SDS011;30778;53.574;7.770;2022-12-18T15:20:44;14.70;;;5.97;;
45039;SDS011;30778;53.574;7.770;2022-12-18T15:23:26;11.93;;;5.65;;
45039;SDS011;30778;53.574;7.770;2022-12-18T15:25:58;8.32;;;4.45;;
45039;SDS011;30778;53.574;7.770;2022-12-18T15:28:36;7.53;;;3.70;;
45039;SDS011;30778;53.574;7.770;2022-12-18T15:33:40;8.50;;;4.53;;
45039;SDS011;30778;53.574;7.770;2022-12-18T15:36:16;8.40;;;4.45;;
45039;SDS011;30778;53.574;7.770;2022-12-18T15:38:45;10.27;;;5.50;;
45039;SDS011;30778;53.574;7.770;2022-12-18T15:41:16;12.73;;;5.80;;
45039;SDS011;30778;53.574;7.770;2022-12-18T15:43:43;16.75;;;7.63;;
45039;SDS011;30778;53.574;7.770;2022-12-18T15:46:11;12.80;;;6.20;;
45039;SDS011;30778;53.574;7.770;2022-12-18T15:48:39;19.55;;;6.68;;
45039;SDS011;30778;53.574;7.770;2022-12-18T15:51:17;18.60;;;7.13;;
45039;SDS011;30778;53.574;7.770;2022-12-18T15:53:45;7.30;;;3.88;;
45039;SDS011;30778;53.574;7.770;2022-12-18T15:56:13;11.23;;;5.28;;
45039;SDS011;30778;53.574;7.770;2022-12-18T15:58:59;18.60;;;9.13;;
45039;SDS011;30778;53.574;7.770;2022-12-18T16:01:26;9.90;;;4.50;;
45039;SDS011;30778;53.574;7.770;2022-12-18T16:03:53;8.15;;;4.05;;
45039;SDS011;30778;53.574;7.770;2022-12-18T16:06:20;11.93;;;4.07;;
45039;SDS011;30778;53.574;7.770;2022-12-18T16:08:46;8.20;;;3.00;;
45039;SDS011;30778;53.574;7.770;2022-12-18T16:11:22;11.90;;;5.53;;
45039;SDS011;30778;53.574;7.770;2022-12-18T16:14:15;12.18;;;5.47;;
45039;SDS011;30778;53.574;7.770;2022-12-18T16:16:46;6.68;;;4.30;;
45039;SDS011;30778;53.574;7.770;2022-12-18T16:19:13;11.15;;;4.32;;
45039;SDS011;30778;53.574;7.770;2022-12-18T16:21:39;6.20;;;3.60;;
45039;SDS011;30778;53.574;7.770;2022-12-18T16:24:04;11.85;;;5.50;;
45039;SDS011;30778;53.574;7.770;2022-12-18T16:26:30;9.15;;;4.82;;
45039;SDS011;30778;53.574;7.770;2022-12-18T16:28:56;10.80;;;5.20;;
45039;SDS011;30778;53.574;7.770;2022-12-18T16:31:21;15.45;;;7.30;;
45039;SDS011;30778;53.574;7.770;2022-12-18T16:33:46;11.75;;;5.82;;
45039;SDS011;30778;53.574;7.770;2022-12-18T16:36:12;9.20;;;4.40;;
45039;SDS011;30778;53.574;7.770;2022-12-18T16:38:37;10.63;;;4.45;;
45039;SDS011;30778;53.574;7.770;2022-12-18T16:41:06;6.28;;;3.92;;
45039;SDS011;30778;53.574;7.770;2022-12-18T16:43:59;11.57;;;3.60;;
45039;SDS011;30778;53.574;7.770;2022-12-18T16:46:24;7.78;;;3.70;;
45039;SDS011;30778;53.574;7.770;2022-12-18T16:48:50;13.43;;;3.75;;
45039;SDS011;30778;53.574;7.770;2022-12-18T16:51:15;10.40;;;5.35;;
45039;SDS011;30778;53.574;7.770;2022-12-18T16:53:41;11.85;;;4.50;;
45039;SDS011;30778;53.574;7.770;2022-12-18T16:56:07;9.38;;;3.45;;
45039;SDS011;30778;53.574;7.770;2022-12-18T16:58:33;5.20;;;3.20;;
45039;SDS011;30778;53.574;7.770;2022-12-18T17:00:58;15.02;;;3.80;;